createdAt,value
2022-08-15T00:00:20.850Z,21.12976074
2022-08-15T00:01:18.806Z,21.12976074
2022-08-15T00:02:34.810Z,21.14990234
2022-08-15T00:03:20.388Z,21.15997314
2022-08-15T00:04:34.492Z,21.18011475
2022-08-15T00:05:22.713Z,21.18011475
2022-08-15T00:06:39.161Z,21.19018555
2022-08-15T00:07:46.177Z,21.24053955
2022-08-15T00:08:50.113Z,21.24053955
2022-08-15T00:09:54.639Z,21.24053955
2022-08-15T00:11:02.271Z,21.27075195
2022-08-15T00:11:28.601Z,21.27075195
2022-08-15T00:12:35.446Z,21.28082275
2022-08-15T00:13:30.778Z,21.30096436
2022-08-15T00:14:32.488Z,21.33117676
2022-08-15T00:15:34.403Z,21.33117676
2022-08-15T00:16:34.796Z,21.33117676
2022-08-15T00:17:48.127Z,21.34124756
2022-08-15T00:18:35.869Z,21.33117676
2022-08-15T00:19:37.321Z,21.34124756
2022-08-15T00:20:38.199Z,21.36138916
2022-08-15T00:21:39.091Z,21.36138916
2022-08-15T00:22:39.914Z,21.34124756
2022-08-15T00:23:40.715Z,21.33117676
2022-08-15T00:24:42.164Z,21.30096436
2022-08-15T00:25:42.999Z,21.28082275
2022-08-15T00:26:55.957Z,21.28082275
2022-08-15T00:27:44.767Z,21.27075195
2022-08-15T00:28:46.234Z,21.26068115
2022-08-15T00:30:24.102Z,21.26068115
2022-08-15T00:31:18.592Z,21.26068115
2022-08-15T00:32:49.919Z,21.22039795
2022-08-15T00:33:27.254Z,21.22039795
2022-08-15T00:34:39.026Z,21.22039795
2022-08-15T00:35:22.667Z,21.21032715
2022-08-15T00:36:52.756Z,21.19018555
2022-08-15T00:37:24.491Z,21.21032715
2022-08-15T00:38:28.390Z,21.21032715
2022-08-15T00:39:26.302Z,21.21032715
2022-08-15T00:40:31.728Z,21.22039795
2022-08-15T00:41:28.038Z,21.26068115
2022-08-15T00:42:30.603Z,21.26068115
2022-08-15T00:43:30.783Z,21.27075195
2022-08-15T00:45:00.580Z,21.27075195
2022-08-15T00:45:34.209Z,21.26068115
2022-08-15T00:46:32.954Z,21.21032715
2022-08-15T00:47:38.932Z,21.21032715
2022-08-15T00:48:35.240Z,21.19018555
2022-08-15T00:50:01.472Z,21.19018555
2022-08-15T00:50:37.557Z,21.18011475
2022-08-15T00:51:38.483Z,21.15997314
2022-08-15T00:52:40.511Z,21.15997314
2022-08-15T00:53:40.152Z,21.15997314
2022-08-15T00:54:56.920Z,21.14990234
2022-08-15T00:55:42.557Z,21.14990234
2022-08-15T00:56:43.354Z,21.11968994
2022-08-15T00:58:00.736Z,21.11968994
2022-08-15T00:58:55.635Z,21.11968994
2022-08-15T00:59:46.389Z,21.12976074
2022-08-15T01:01:17.751Z,21.14990234
2022-08-15T01:02:23.320Z,21.12976074
2022-08-15T01:03:20.094Z,21.14990234
2022-08-15T01:04:20.452Z,21.14990234
2022-08-15T01:05:22.096Z,21.14990234
2022-08-15T01:06:28.215Z,21.11968994
2022-08-15T01:07:23.849Z,21.10961914
2022-08-15T01:08:30.945Z,21.07940674
2022-08-15T01:09:25.578Z,21.02905273
2022-08-15T01:10:26.317Z,21.00891113
2022-08-15T01:11:33.897Z,20.97869873
2022-08-15T01:12:28.060Z,20.96862793
2022-08-15T01:14:03.252Z,20.95855713
2022-08-15T01:14:55.950Z,20.93841553
2022-08-15T01:15:42.264Z,20.92834473
2022-08-15T01:16:34.108Z,20.90820313
2022-08-15T01:17:33.362Z,20.89813232
2022-08-15T01:18:35.210Z,20.82763672
2022-08-15T01:19:35.834Z,20.77728271
2022-08-15T01:20:36.581Z,20.74707031
2022-08-15T01:21:37.394Z,20.70678711
2022-08-15T01:22:38.270Z,20.68664551
2022-08-15T01:23:54.442Z,20.67657471
2022-08-15T01:25:15.976Z,20.65643311
2022-08-15T01:26:38.830Z,20.65643311
2022-08-15T01:26:46.100Z,20.67657471
2022-08-15T01:27:44.236Z,20.68664551
2022-08-15T01:28:45.426Z,20.71685791
2022-08-15T01:31:01.753Z,20.72692871
2022-08-15T01:31:17.566Z,20.75714111
2022-08-15T01:32:19.340Z,20.77728271
2022-08-15T01:33:21.574Z,20.77728271
2022-08-15T01:34:21.219Z,20.80749512
2022-08-15T01:35:22.823Z,20.81756592
2022-08-15T01:36:32.938Z,20.81756592
2022-08-15T01:37:24.633Z,20.82763672
2022-08-15T01:38:37.151Z,20.84777832
2022-08-15T01:39:26.591Z,20.87799072
2022-08-15T01:40:52.073Z,20.89813232
2022-08-15T01:41:36.418Z,20.89813232
2022-08-15T01:42:29.154Z,20.86791992
2022-08-15T01:43:30.057Z,20.81756592
2022-08-15T01:44:33.364Z,20.75714111
2022-08-15T01:45:32.626Z,20.71685791
2022-08-15T01:46:33.491Z,20.70678711
2022-08-15T01:47:34.393Z,20.6362915
2022-08-15T01:48:37.165Z,20.6060791
2022-08-15T01:49:36.154Z,20.6060791
2022-08-15T01:50:37.688Z,20.6060791
2022-08-15T01:51:38.459Z,20.5758667
2022-08-15T01:52:58.945Z,20.6262207
2022-08-15T01:53:40.237Z,20.6262207
2022-08-15T01:55:02.411Z,20.6060791
2022-08-15T01:55:44.217Z,20.6060791
2022-08-15T01:56:45.577Z,20.5960083
2022-08-15T01:57:44.906Z,20.5657959
2022-08-15T01:59:16.400Z,20.5657959
2022-08-15T02:00:18.969Z,20.5355835
2022-08-15T02:01:19.031Z,20.50537109
2022-08-15T02:02:42.243Z,20.49530029
2022-08-15T02:03:21.346Z,20.5255127
2022-08-15T02:04:24.119Z,20.5557251
2022-08-15T02:05:23.201Z,20.5355835
2022-08-15T02:06:34.867Z,20.45501709
2022-08-15T02:07:24.816Z,20.41473389
2022-08-15T02:08:35.399Z,20.41473389
2022-08-15T02:09:38.312Z,20.37445068
2022-08-15T02:10:27.979Z,20.37445068
2022-08-15T02:11:28.400Z,20.37445068
2022-08-15T02:13:04.288Z,20.40466309
2022-08-15T02:13:29.989Z,20.40466309
2022-08-15T02:14:37.960Z,20.41473389
2022-08-15T02:15:32.213Z,20.45501709
2022-08-15T02:16:32.960Z,20.47515869
2022-08-15T02:17:33.739Z,20.45501709
2022-08-15T02:18:34.571Z,20.47515869
2022-08-15T02:19:38.226Z,20.50537109
2022-08-15T02:20:39.444Z,20.5255127
2022-08-15T02:21:38.025Z,20.5355835
2022-08-15T02:22:38.751Z,20.5557251
2022-08-15T02:23:40.220Z,20.5960083
2022-08-15T02:24:41.021Z,20.5960083
2022-08-15T02:25:42.747Z,20.5758667
2022-08-15T02:26:43.550Z,20.6060791
2022-08-15T02:27:44.309Z,20.6060791
2022-08-15T02:29:15.987Z,20.5960083
2022-08-15T02:30:17.029Z,20.5960083
2022-08-15T02:31:17.708Z,20.5960083
2022-08-15T02:32:18.851Z,20.5758667
2022-08-15T02:33:19.339Z,20.5758667
2022-08-15T02:34:20.239Z,20.5657959
2022-08-15T02:35:21.861Z,20.5758667
2022-08-15T02:36:31.528Z,20.5557251
2022-08-15T02:37:23.700Z,20.5355835
2022-08-15T02:38:24.445Z,20.5355835
2022-08-15T02:39:25.401Z,20.5355835
2022-08-15T02:40:44.924Z,20.5255127
2022-08-15T02:41:27.087Z,20.49530029
2022-08-15T02:42:28.002Z,20.45501709
2022-08-15T02:43:29.808Z,20.45501709
2022-08-15T02:44:30.699Z,20.41473389
2022-08-15T02:45:32.295Z,20.41473389
2022-08-15T02:46:33.127Z,20.41473389
2022-08-15T02:47:34.673Z,20.40466309
2022-08-15T02:48:35.457Z,20.40466309
2022-08-15T02:49:48.228Z,20.38452148
2022-08-15T02:50:37.823Z,20.34423828
2022-08-15T02:51:46.975Z,20.33416748
2022-08-15T02:52:39.552Z,20.33416748
2022-08-15T02:53:47.171Z,20.34423828
2022-08-15T02:54:59.504Z,20.33416748
2022-08-15T02:55:42.814Z,20.31402588
2022-08-15T02:56:43.720Z,20.27374268
2022-08-15T02:57:59.481Z,20.27374268
2022-08-15T02:59:16.133Z,20.27374268
2022-08-15T03:00:19.400Z,20.26367188
2022-08-15T03:01:24.207Z,20.26367188
2022-08-15T03:02:30.493Z,20.23345947
2022-08-15T03:03:20.281Z,20.26367188
2022-08-15T03:04:27.756Z,20.23345947
2022-08-15T03:05:22.793Z,20.23345947
2022-08-15T03:06:31.932Z,20.22338867
2022-08-15T03:07:25.135Z,20.23345947
2022-08-15T03:08:25.868Z,20.23345947
2022-08-15T03:09:33.788Z,20.25360107
2022-08-15T03:10:29.670Z,20.23345947
2022-08-15T03:11:28.428Z,20.26367188
2022-08-15T03:12:32.298Z,20.30395508
2022-08-15T03:13:39.546Z,20.27374268
2022-08-15T03:14:32.929Z,20.30395508
2022-08-15T03:15:34.747Z,20.27374268
2022-08-15T03:16:33.680Z,20.31402588
2022-08-15T03:17:35.044Z,20.30395508
2022-08-15T03:18:35.229Z,20.26367188
2022-08-15T03:19:39.451Z,20.23345947
2022-08-15T03:20:37.826Z,20.20324707
2022-08-15T03:21:38.666Z,20.22338867
2022-08-15T03:22:45.651Z,20.22338867
2022-08-15T03:23:41.560Z,20.23345947
2022-08-15T03:24:41.436Z,20.20324707
2022-08-15T03:25:49.237Z,20.20324707
2022-08-15T03:26:46.917Z,20.22338867
2022-08-15T03:28:27.763Z,20.23345947
2022-08-15T03:29:16.203Z,20.22338867
2022-08-15T03:30:19.914Z,20.23345947
2022-08-15T03:31:17.724Z,20.23345947
2022-08-15T03:32:32.804Z,20.23345947
2022-08-15T03:33:19.231Z,20.20324707
2022-08-15T03:34:29.010Z,20.20324707
2022-08-15T03:35:21.331Z,20.19317627
2022-08-15T03:36:23.519Z,20.20324707
2022-08-15T03:37:23.805Z,20.17303467
2022-08-15T03:38:48.590Z,20.16296387
2022-08-15T03:39:25.371Z,20.16296387
2022-08-15T03:40:29.201Z,20.16296387
2022-08-15T03:41:27.185Z,20.17303467
2022-08-15T03:42:36.523Z,20.16296387
2022-08-15T03:43:38.315Z,20.17303467
2022-08-15T03:44:33.062Z,20.16296387
2022-08-15T03:45:35.009Z,20.17303467
2022-08-15T03:46:32.302Z,20.17303467
2022-08-15T03:47:33.222Z,20.17303467
2022-08-15T03:48:34.388Z,20.16296387
2022-08-15T03:50:22.790Z,20.15289307
2022-08-15T03:50:43.094Z,20.13275146
2022-08-15T03:51:37.226Z,20.12268066
2022-08-15T03:52:38.095Z,20.13275146
2022-08-15T03:53:44.840Z,20.10253906
2022-08-15T03:54:39.695Z,20.12268066
2022-08-15T03:55:40.853Z,20.10253906
2022-08-15T03:56:42.047Z,20.08239746
2022-08-15T03:58:02.884Z,20.05218506
2022-08-15T03:58:44.121Z,20.02197266
2022-08-15T04:00:15.237Z,20.02197266
2022-08-15T04:01:16.147Z,20.04211426
2022-08-15T04:02:29.983Z,20.05218506
2022-08-15T04:03:18.659Z,20.05218506
2022-08-15T04:04:19.382Z,20.05218506
2022-08-15T04:05:23.102Z,20.05218506
2022-08-15T04:06:27.720Z,20.04211426
2022-08-15T04:07:23.517Z,20.02197266
2022-08-15T04:08:44.194Z,20.00183105
2022-08-15T04:09:26.305Z,19.98168945
2022-08-15T04:10:37.092Z,19.98168945
2022-08-15T04:11:35.139Z,19.98168945
2022-08-15T04:12:26.772Z,20.00183105
2022-08-15T04:13:27.617Z,20.00183105
2022-08-15T04:14:32.237Z,19.97161865
2022-08-15T04:15:30.555Z,19.95147705
2022-08-15T04:17:02.204Z,19.95147705
2022-08-15T04:17:57.375Z,19.92126465
2022-08-15T04:18:43.038Z,19.92126465
2022-08-15T04:19:47.301Z,19.89105225
2022-08-15T04:20:34.776Z,19.89105225
2022-08-15T04:21:35.654Z,19.89105225
2022-08-15T04:22:52.828Z,19.86083984
2022-08-15T04:23:37.343Z,19.86083984
2022-08-15T04:24:38.085Z,19.86083984
2022-08-15T04:25:42.980Z,19.89105225
2022-08-15T04:26:40.665Z,19.86083984
2022-08-15T04:27:44.433Z,19.83062744
2022-08-15T04:28:54.291Z,19.83062744
2022-08-15T04:29:44.775Z,19.82055664
2022-08-15T04:31:15.947Z,19.79034424
2022-08-15T04:32:29.168Z,19.79034424
2022-08-15T04:33:24.320Z,19.78027344
2022-08-15T04:34:48.500Z,19.78027344
2022-08-15T04:35:19.193Z,19.76013184
2022-08-15T04:36:20.702Z,19.76013184
2022-08-15T04:37:21.528Z,19.78027344
2022-08-15T04:38:22.432Z,19.79034424
2022-08-15T04:39:23.391Z,19.79034424
2022-08-15T04:41:17.656Z,19.82055664
2022-08-15T04:41:33.652Z,19.83062744
2022-08-15T04:42:26.579Z,19.79034424
2022-08-15T04:43:27.548Z,19.79034424
2022-08-15T04:44:28.981Z,19.76013184
2022-08-15T04:45:28.939Z,19.76013184
2022-08-15T04:46:30.637Z,19.76013184
2022-08-15T04:47:35.921Z,19.76013184
2022-08-15T04:48:34.456Z,19.76013184
2022-08-15T04:49:33.212Z,19.79034424
2022-08-15T04:50:33.934Z,19.79034424
2022-08-15T04:51:36.635Z,19.80041504
2022-08-15T04:52:37.260Z,19.78027344
2022-08-15T04:53:38.126Z,19.79034424
2022-08-15T04:54:39.144Z,19.78027344
2022-08-15T04:55:45.121Z,19.76013184
2022-08-15T04:56:47.196Z,19.76013184
2022-08-15T04:57:44.113Z,19.76013184
2022-08-15T04:59:34.166Z,19.76013184
2022-08-15T05:00:15.046Z,19.78027344
2022-08-15T05:01:16.155Z,19.76013184
2022-08-15T05:02:53.501Z,19.76013184
2022-08-15T05:03:17.512Z,19.71984863
2022-08-15T05:04:23.734Z,19.76013184
2022-08-15T05:05:19.061Z,19.75006104
2022-08-15T05:06:29.318Z,19.79034424
2022-08-15T05:07:21.626Z,19.79034424
2022-08-15T05:08:22.592Z,19.76013184
2022-08-15T05:09:23.609Z,19.79034424
2022-08-15T05:10:24.287Z,19.79034424
2022-08-15T05:11:25.011Z,19.78027344
2022-08-15T05:12:25.886Z,19.76013184
2022-08-15T05:13:26.739Z,19.82055664
2022-08-15T05:14:36.177Z,19.82055664
2022-08-15T05:15:31.724Z,19.82055664
2022-08-15T05:16:33.521Z,19.83062744
2022-08-15T05:17:57.756Z,19.85076904
2022-08-15T05:18:31.906Z,19.83062744
2022-08-15T05:19:32.816Z,19.85076904
2022-08-15T05:20:33.669Z,19.85076904
2022-08-15T05:21:43.869Z,19.85076904
2022-08-15T05:22:36.592Z,19.86083984
2022-08-15T05:23:42.852Z,19.86083984
2022-08-15T05:24:37.663Z,19.87091064
2022-08-15T05:25:42.080Z,19.89105225
2022-08-15T05:26:57.446Z,19.86083984
2022-08-15T05:27:44.575Z,19.87091064
2022-08-15T05:28:41.320Z,19.89105225
2022-08-15T05:29:42.285Z,19.92126465
2022-08-15T05:31:14.696Z,19.94140625
2022-08-15T05:32:18.526Z,19.94140625
2022-08-15T05:33:15.306Z,19.94140625
2022-08-15T05:34:37.138Z,19.94140625
2022-08-15T05:35:17.778Z,19.97161865
2022-08-15T05:36:27.302Z,20.00183105
2022-08-15T05:37:21.598Z,20.01190186
2022-08-15T05:38:26.090Z,20.05218506
2022-08-15T05:39:22.547Z,20.08239746
2022-08-15T05:40:24.285Z,20.10253906
2022-08-15T05:41:23.533Z,20.13275146
2022-08-15T05:42:31.673Z,20.12268066
2022-08-15T05:43:26.237Z,20.07232666
2022-08-15T05:44:39.402Z,20.07232666
2022-08-15T05:45:31.240Z,20.04211426
2022-08-15T05:46:29.306Z,20.04211426
2022-08-15T05:47:30.087Z,20.02197266
2022-08-15T05:48:34.133Z,20.04211426
2022-08-15T05:49:31.856Z,20.05218506
2022-08-15T05:50:32.696Z,20.05218506
2022-08-15T05:51:51.296Z,20.07232666
2022-08-15T05:52:47.948Z,20.08239746
2022-08-15T05:53:35.744Z,20.07232666
2022-08-15T05:54:36.661Z,20.08239746
2022-08-15T05:55:38.295Z,20.12268066
2022-08-15T05:56:39.818Z,20.15289307
2022-08-15T05:57:40.614Z,20.15289307
2022-08-15T05:58:44.650Z,20.17303467
2022-08-15T05:59:48.295Z,20.17303467
2022-08-15T06:01:14.697Z,20.19317627
2022-08-15T06:02:36.918Z,20.20324707
2022-08-15T06:03:15.976Z,20.23345947
2022-08-15T06:04:30.641Z,20.25360107
2022-08-15T06:05:17.717Z,20.26367188
2022-08-15T06:06:26.629Z,20.26367188
2022-08-15T06:07:20.170Z,20.26367188
2022-08-15T06:08:50.048Z,20.26367188
2022-08-15T06:09:22.430Z,20.27374268
2022-08-15T06:10:35.589Z,20.30395508
2022-08-15T06:11:24.329Z,20.33416748
2022-08-15T06:12:26.585Z,20.33416748
2022-08-15T06:13:25.969Z,20.30395508
2022-08-15T06:14:35.300Z,20.26367188
2022-08-15T06:15:32.554Z,20.26367188
2022-08-15T06:16:46.317Z,20.23345947
2022-08-15T06:17:30.026Z,20.25360107
2022-08-15T06:18:30.851Z,20.23345947
2022-08-15T06:19:34.436Z,20.27374268
2022-08-15T06:20:38.665Z,20.33416748
2022-08-15T06:21:33.468Z,20.33416748
2022-08-15T06:22:34.803Z,20.33416748
2022-08-15T06:23:36.477Z,20.37445068
2022-08-15T06:24:36.607Z,20.40466309
2022-08-15T06:25:38.100Z,20.44494629
2022-08-15T06:26:40.964Z,20.44494629
2022-08-15T06:27:40.327Z,20.44494629
2022-08-15T06:28:54.152Z,20.45501709
2022-08-15T06:29:41.356Z,20.49530029
2022-08-15T06:30:44.809Z,20.5255127
2022-08-15T06:32:23.023Z,20.49530029
2022-08-15T06:33:17.252Z,20.50537109
2022-08-15T06:34:54.815Z,20.50537109
2022-08-15T06:35:16.782Z,20.5255127
2022-08-15T06:36:17.695Z,20.50537109
2022-08-15T06:37:19.225Z,20.50537109
2022-08-15T06:38:37.194Z,20.5355835
2022-08-15T06:39:20.918Z,20.5355835
2022-08-15T06:40:27.989Z,20.5557251
2022-08-15T06:41:25.013Z,20.5557251
2022-08-15T06:42:23.291Z,20.5758667
2022-08-15T06:43:24.022Z,20.6060791
2022-08-15T06:44:30.812Z,20.6060791
2022-08-15T06:45:25.752Z,20.6060791
2022-08-15T06:46:46.990Z,20.6362915
2022-08-15T06:47:28.239Z,20.65643311
2022-08-15T06:48:54.974Z,20.67657471
2022-08-15T06:49:36.152Z,20.71685791
2022-08-15T06:50:31.389Z,20.72692871
2022-08-15T06:51:45.382Z,20.72692871
2022-08-15T06:52:33.850Z,20.71685791
2022-08-15T06:53:34.588Z,20.70678711
2022-08-15T06:54:39.120Z,20.70678711
2022-08-15T06:55:37.210Z,20.70678711
2022-08-15T06:56:37.867Z,20.71685791
2022-08-15T06:57:38.705Z,20.72692871
2022-08-15T06:58:54.993Z,20.74707031
2022-08-15T06:59:41.011Z,20.75714111
2022-08-15T07:00:45.534Z,20.82763672
2022-08-15T07:02:17.937Z,20.86791992
2022-08-15T07:03:14.810Z,20.89813232
2022-08-15T07:04:15.543Z,20.90820313
2022-08-15T07:05:25.261Z,20.87799072
2022-08-15T07:06:17.366Z,20.89813232
2022-08-15T07:07:18.813Z,20.86791992
2022-08-15T07:08:19.691Z,20.86791992
2022-08-15T07:09:23.466Z,20.86791992
2022-08-15T07:10:21.355Z,20.89813232
2022-08-15T07:11:22.524Z,20.92834473
2022-08-15T07:12:36.550Z,20.93841553
2022-08-15T07:13:23.859Z,20.96862793
2022-08-15T07:14:24.633Z,20.99884033
2022-08-15T07:15:25.504Z,21.00891113
2022-08-15T07:16:27.973Z,21.04919434
2022-08-15T07:17:32.825Z,21.05926514
2022-08-15T07:18:33.135Z,21.08947754
2022-08-15T07:19:34.692Z,21.12976074
2022-08-15T07:20:38.334Z,21.11968994
2022-08-15T07:21:52.316Z,21.12976074
2022-08-15T07:22:35.204Z,21.14990234
2022-08-15T07:23:33.194Z,21.14990234
2022-08-15T07:24:36.135Z,21.18011475
2022-08-15T07:25:35.331Z,21.21032715
2022-08-15T07:26:36.273Z,21.22039795
2022-08-15T07:27:37.928Z,21.24053955
2022-08-15T07:28:43.230Z,21.24053955
2022-08-15T07:29:40.345Z,21.24053955
2022-08-15T07:30:40.090Z,21.26068115
2022-08-15T07:32:00.049Z,21.26068115
2022-08-15T07:32:42.733Z,21.26068115
2022-08-15T07:34:20.075Z,21.27075195
2022-08-15T07:35:15.237Z,21.28082275
2022-08-15T07:36:29.412Z,21.28082275
2022-08-15T07:37:17.868Z,21.31103516
2022-08-15T07:38:22.144Z,21.31103516
2022-08-15T07:39:19.504Z,21.33117676
2022-08-15T07:40:28.750Z,21.36138916
2022-08-15T07:41:21.163Z,21.37145996
2022-08-15T07:42:28.743Z,21.38153076
2022-08-15T07:43:23.709Z,21.40167236
2022-08-15T07:44:24.459Z,21.40167236
2022-08-15T07:45:25.727Z,21.42181396
2022-08-15T07:46:26.042Z,21.42181396
2022-08-15T07:47:27.784Z,21.45202637
2022-08-15T07:48:29.345Z,21.46209717
2022-08-15T07:49:30.173Z,21.48223877
2022-08-15T07:50:36.543Z,21.49230957
2022-08-15T07:51:33.831Z,21.52252197
2022-08-15T07:52:54.381Z,21.53259277
2022-08-15T07:54:50.144Z,21.59301758
2022-08-15T07:56:14.358Z,21.64337158
2022-08-15T07:56:46.299Z,21.66351318
2022-08-15T07:57:52.490Z,21.68365479
2022-08-15T07:58:40.061Z,21.73400879
2022-08-15T07:59:54.465Z,21.74407959
2022-08-15T08:00:45.971Z,21.79443359
2022-08-15T08:02:29.903Z,21.8145752
2022-08-15T08:03:14.799Z,21.8347168
2022-08-15T08:04:23.400Z,21.8347168
2022-08-15T08:06:34.175Z,21.8649292
2022-08-15T08:07:34.340Z,21.9052124
2022-08-15T08:08:45.378Z,21.9052124
2022-08-15T08:09:19.980Z,21.9052124
2022-08-15T08:10:24.670Z,21.925354
2022-08-15T08:11:23.650Z,21.9052124
2022-08-15T08:12:35.382Z,21.9052124
2022-08-15T08:13:29.209Z,21.9052124
2022-08-15T08:14:39.491Z,21.8951416
2022-08-15T08:15:42.435Z,21.8850708
2022-08-15T08:16:31.188Z,21.8649292
2022-08-15T08:17:42.374Z,21.8850708
2022-08-15T08:18:29.284Z,21.8649292
2022-08-15T08:19:30.061Z,21.8649292
2022-08-15T08:20:30.803Z,21.8850708
2022-08-15T08:21:31.667Z,21.8850708
2022-08-15T08:22:33.347Z,21.8548584
2022-08-15T08:23:34.465Z,21.8347168
2022-08-15T08:24:34.959Z,21.824646
2022-08-15T08:26:03.565Z,21.8145752
2022-08-15T08:26:36.754Z,21.79443359
2022-08-15T08:27:47.489Z,21.77429199
2022-08-15T08:28:39.314Z,21.77429199
2022-08-15T08:29:40.055Z,21.75415039
2022-08-15T08:30:44.201Z,21.75415039
2022-08-15T08:31:42.525Z,21.77429199
2022-08-15T08:33:13.741Z,21.77429199
2022-08-15T08:34:32.317Z,21.79443359
2022-08-15T08:35:16.345Z,21.824646
2022-08-15T08:36:35.703Z,21.8548584
2022-08-15T08:37:17.873Z,21.8347168
2022-08-15T08:38:58.636Z,21.8649292
2022-08-15T08:39:19.662Z,21.8649292
2022-08-15T08:40:20.422Z,21.8850708
2022-08-15T08:41:21.206Z,21.8649292
2022-08-15T08:42:22.038Z,21.8850708
2022-08-15T08:43:22.870Z,21.8649292
2022-08-15T08:44:23.690Z,21.8850708
2022-08-15T08:45:24.453Z,21.8951416
2022-08-15T08:46:30.703Z,21.9052124
2022-08-15T08:47:26.886Z,21.925354
2022-08-15T08:48:27.891Z,21.9354248
2022-08-15T08:50:34.382Z,21.95556641
2022-08-15T08:50:34.536Z,21.97570801
2022-08-15T08:51:31.074Z,21.98577881
2022-08-15T08:52:31.897Z,22.00592041
2022-08-15T08:53:33.338Z,22.00592041
2022-08-15T08:54:52.762Z,22.00592041
2022-08-15T08:55:45.799Z,22.01599121
2022-08-15T08:56:35.876Z,22.03613281
2022-08-15T08:57:37.370Z,22.04620361
2022-08-15T08:58:44.662Z,22.05627441
2022-08-15T08:59:38.936Z,22.05627441
2022-08-15T09:00:39.654Z,22.08648682
2022-08-15T09:01:40.433Z,22.08648682
2022-08-15T09:02:41.103Z,22.08648682
2022-08-15T09:04:12.872Z,22.11669922
2022-08-15T09:05:13.500Z,22.13684082
2022-08-15T09:06:26.102Z,22.14691162
2022-08-15T09:07:14.963Z,22.14691162
2022-08-15T09:08:16.340Z,22.18719482
2022-08-15T09:09:22.953Z,22.20733643
2022-08-15T09:10:27.602Z,22.23754883
2022-08-15T09:11:19.017Z,22.25769043
2022-08-15T09:12:19.882Z,22.25769043
2022-08-15T09:13:20.679Z,22.28790283
2022-08-15T09:14:32.597Z,22.29797363
2022-08-15T09:15:22.379Z,22.30804443
2022-08-15T09:16:24.854Z,22.32818604
2022-08-15T09:17:30.551Z,22.34832764
2022-08-15T09:18:27.373Z,22.35839844
2022-08-15T09:19:29.744Z,22.35839844
2022-08-15T09:20:34.086Z,22.35839844
2022-08-15T09:21:38.185Z,22.35839844
2022-08-15T09:22:29.355Z,22.38861084
2022-08-15T09:23:32.967Z,22.38861084
2022-08-15T09:24:37.711Z,22.41882324
2022-08-15T09:25:31.528Z,22.44903564
2022-08-15T09:26:32.265Z,22.45910645
2022-08-15T09:27:33.793Z,22.50946045
2022-08-15T09:28:36.351Z,22.50946045
2022-08-15T09:29:36.222Z,22.53967285
2022-08-15T09:30:49.573Z,22.53967285
2022-08-15T09:31:40.915Z,22.55981445
2022-08-15T09:32:38.647Z,22.56988525
2022-08-15T09:33:39.528Z,22.59002686
2022-08-15T09:34:40.141Z,22.63031006
2022-08-15T09:35:41.516Z,22.64038086
2022-08-15T09:37:13.761Z,22.63031006
2022-08-15T09:38:25.320Z,22.64038086
2022-08-15T09:39:14.603Z,22.66052246
2022-08-15T09:40:58.438Z,22.66052246
2022-08-15T09:41:20.200Z,22.66052246
2022-08-15T09:42:34.336Z,22.67059326
2022-08-15T09:43:17.780Z,22.67059326
2022-08-15T09:44:37.035Z,22.66052246
2022-08-15T09:45:19.488Z,22.69073486
2022-08-15T09:46:36.177Z,22.67059326
2022-08-15T09:47:27.034Z,22.69073486
2022-08-15T09:48:23.959Z,22.69073486
2022-08-15T09:49:24.860Z,22.70080566
2022-08-15T09:50:35.219Z,22.70080566
2022-08-15T09:51:26.624Z,22.74108887
2022-08-15T09:52:35.886Z,22.75115967
2022-08-15T09:53:52.405Z,22.78137207
2022-08-15T09:54:40.017Z,22.76123047
2022-08-15T09:55:32.557Z,22.78137207
2022-08-15T09:56:31.306Z,22.78137207
2022-08-15T09:57:32.242Z,22.81158447
2022-08-15T09:58:33.847Z,22.81158447
2022-08-15T09:59:34.665Z,22.81158447
2022-08-15T10:00:35.698Z,22.79144287
2022-08-15T10:01:38.390Z,22.79144287
2022-08-15T10:02:39.930Z,22.79144287
2022-08-15T10:03:39.415Z,22.81158447
2022-08-15T10:04:40.137Z,22.82165527
2022-08-15T10:05:41.351Z,22.81158447
2022-08-15T10:07:13.234Z,22.79144287
2022-08-15T10:08:13.917Z,22.81158447
2022-08-15T10:09:14.795Z,22.82165527
2022-08-15T10:10:15.597Z,22.84179688
2022-08-15T10:11:16.412Z,22.86193848
2022-08-15T10:12:17.186Z,22.88208008
2022-08-15T10:13:18.009Z,22.89215088
2022-08-15T10:14:18.882Z,22.91229248
2022-08-15T10:15:19.715Z,22.91229248
2022-08-15T10:16:20.611Z,22.93243408
2022-08-15T10:17:22.372Z,22.94250488
2022-08-15T10:18:23.921Z,22.97271729
2022-08-15T10:19:24.809Z,22.97271729
2022-08-15T10:20:25.604Z,23.00292969
2022-08-15T10:21:26.405Z,23.04321289
2022-08-15T10:22:45.101Z,23.06335449
2022-08-15T10:23:28.821Z,23.07342529
2022-08-15T10:24:30.014Z,23.1137085
2022-08-15T10:25:30.565Z,23.1137085
2022-08-15T10:26:34.246Z,23.1439209
2022-08-15T10:27:32.125Z,23.1942749
2022-08-15T10:28:36.623Z,23.23455811
2022-08-15T10:29:35.605Z,23.30505371
2022-08-15T10:30:45.796Z,23.34533691
2022-08-15T10:31:52.672Z,23.40576172
2022-08-15T10:32:56.648Z,23.44604492
2022-08-15T10:33:37.955Z,23.49639893
2022-08-15T10:34:38.160Z,23.55682373
2022-08-15T10:35:38.901Z,23.62731934
2022-08-15T10:36:41.668Z,23.68774414
2022-08-15T10:37:44.232Z,23.74816895
2022-08-15T10:39:15.207Z,23.77838135
2022-08-15T10:40:17.141Z,23.81866455
2022-08-15T10:41:14.727Z,23.83880615
2022-08-15T10:42:22.535Z,23.83880615
2022-08-15T10:43:15.319Z,23.78845215
2022-08-15T10:44:35.471Z,23.77838135
2022-08-15T10:45:16.831Z,23.80859375
2022-08-15T10:46:17.530Z,23.77838135
2022-08-15T10:47:18.263Z,23.80859375
2022-08-15T10:48:44.534Z,23.81866455
2022-08-15T10:49:25.951Z,23.83880615
2022-08-15T10:50:23.816Z,23.83880615
2022-08-15T10:51:22.795Z,23.85894775
2022-08-15T10:52:24.476Z,23.83880615
2022-08-15T10:53:24.264Z,23.81866455
2022-08-15T10:54:24.977Z,23.81866455
2022-08-15T10:55:55.755Z,23.85894775
2022-08-15T10:57:06.324Z,23.86901855
2022-08-15T10:57:27.295Z,23.89923096
2022-08-15T10:58:30.049Z,23.92944336
2022-08-15T10:59:29.590Z,23.98986816
2022-08-15T11:00:37.595Z,24.02008057
2022-08-15T11:01:31.775Z,24.06036377
2022-08-15T11:02:37.552Z,24.09057617
2022-08-15T11:04:47.369Z,24.11071777
2022-08-15T11:04:50.227Z,24.12078857
2022-08-15T11:05:34.709Z,24.15100098
2022-08-15T11:06:35.383Z,24.16107178
2022-08-15T11:07:36.517Z,24.21142578
2022-08-15T11:08:37.869Z,24.23156738
2022-08-15T11:09:39.209Z,24.26177979
2022-08-15T11:10:39.372Z,24.30206299
2022-08-15T11:11:40.703Z,24.34234619
2022-08-15T11:13:14.135Z,24.37255859